EPKK/KRK METAR and TAF weather

Enter ICAO airport designator
Station Type Date Time Source
EPKK METAR 2022/09/26 10:30 UTC NOAA

EPKK 261030Z VRB01KT 9999 FEW006 SCT045 BKN068 13/11 Q1007


Station Type Date Time Source
EPKK Decoded METAR 2022/09/26 10:30 UTC NOAA

Krakow, Poland (EPKK) 50-05N 019-48E 237M
Sep 26, 2022 - 06:30 AM EDT / 2022.09.26 1030 UTC
Wind: Variable at 1 MPH (1 KT):0
Visibility: greater than 7 mile(s):0
Sky conditions: mostly cloudy
Temperature: 55 F (13 C)
Dew Point: 51 F (11 C)
Relative Humidity: 87%
Pressure (altimeter): 29.74 in. Hg (1007 hPa)
ob: EPKK 261030Z VRB01KT 9999 FEW006 SCT045 BKN068 13/11 Q1007
cycle: 10

Station Type Date Time Source
EPKK TAF 2022/09/26 09:36 UTC NOAA

TAF EPKK 260830Z 2609/2709 07003KT 6000 BKN035
TEMPO 2609/2618 4000 SHRA BKN013 BKN020CB PROB30
TEMPO 2612/2616 2500 TSRA
BECMG 2618/2621 3000 BR BKN010
BECMG 2621/2624 0800 FG OVC002 PROB40
TEMPO 2701/2706 0200 FG OVC001
BECMG 2706/2709 4000 BR BKN030

Example: see airport list